Airfield :
LOGIN :

Register | Disclaimer

   EN    FR    IT 

 










Legend :    VFR   Marginal VFR   IFR   Intensive IFR   Very Intensive IFR
Visi :
Ceiling :
>= 8 km
>= 3000ft
5 to 8 km
1000 to 3000 ft
1500m to 5 km
500 to 1000 ft
800 to 1500m
200 to 500 ft
< 800m
< 200 ft
Symbols :   Thunderstorms  Fog  Heavy snow  Heavy precipitations  Wind > 20 kt
SIGMETs :     Misc.  Thunderstorms  Icing  Turbulence  Mountain Waves  Volcanic Ashes







- Airport Elevation : 299 ft
- IATA code : EDM
- Download approach charts


LFRI - La Roche Sur Yon - Les Ajoncs

CURRENT METAR :
  • 182200Z AUTO 31008KT CAVOK 19/13 Q1017

EXPIRED METARs :
  • 182130Z AUTO 30004KT CAVOK 19/14 Q1017
  • 182100Z AUTO 30005KT CAVOK 19/14 Q1017 NOSIG
  • 182030Z AUTO 33005KT CAVOK 19/13 Q1017 NOSIG
  • 182000Z AUTO 32006KT CAVOK 21/14 Q1016 NOSIG
  • 181930Z AUTO 32007KT CAVOK 22/14 Q1016 NOSIG

TAF TAF LFRI
Valid from the 18 at 18:00 until the 19 at 18:00 UTC


181700Z 1818/1918 30010KT CAVOK
BECMG 1900/1903 02005KT
PROB40
TEMPO 1909/1918 4900 -SHRA SCT060CB
PROB30
TEMPO 1912/1918 VRB15G35KT 2500 TSRA BKN060CB
No reported NOTAMs for that airfield.



MET'MAP, your aeronautical weather chart ! - Copyright ORBIFLY December 2007 - Disclaimer

ORBIFLY MET'MAP TEAM :

Programming & Development : Alexandra Zaïnal
Concept & Development : Baudouin d'Aumeries
Co-Development & Prog : Marc-Olivier Méhu
Technical & hardware support : Manuel Goepfert

Contact : metmap@orbifly.com




SOURCES & CREDITS :

   NOAA